Hopkinsville, KY

4:49 AM CDT on April 02, 2015 (GMT -0500)
Coxmill rd | | Change Station
CLOSE
Current Station
Personal Weather Station
Location: Hopkinsville, KY
Elevation: 554 ft
Nearby Weather Stations

Elev 554 ft 36.85 °N, 87.51 °W | Updated 10 minutes ago

Partly Cloudy
Partly Cloudy
63.3 °F
Feels Like 63.3 °F
N
1.0
Wind Variable Wind from SSW
Gusts 4.0 mph

Today
High -- | Low -- °F
--% Chance of Precip.
Yesterday
High -- | Low -- °F
Precip. -- in
6:34 AM 7:13 PM
Waxing Gibbous, 96% visible
Pressure 29.91 in
Visibility 10.0 miles
Clouds Clear
Dew Point 51 °F
Humidity 64%
Rainfall 0.00 in
Snow Depth Not available.
UV 0 out of 12
Pollen 10.20 out of 12
Air Quality Not available.
Flu Activity Not available.
METAR KHOP 020858Z AUTO 18005KT 10SM CLR 19/09 A2991 RMK AO2 SLP126 T01860094 57017

More Conditions Fewer Conditions

Pressure 29.91 in
Visibility 10.0 miles
Clouds Clear
Dew Point 51 °F
Humidity 64%
Rainfall 0.00 in
Snow Depth Not available.
UV 0 out of 12
Pollen 10.20 out of 12
Air Quality Not available.
Flu Activity Not available.
METAR KHOP 020858Z AUTO 18005KT 10SM CLR 19/09 A2991 RMK AO2 SLP126 T01860094 57017

More Conditions Fewer Conditions

10-Day Weather Forecast

Almanac

Astronomy

Apr. 02, 2015 Rise Set
Actual Time
Civil Twilight
Nautical Twilight
Astronomical Twilight
Moon
Length of Visible Light
Length of Day
Tomorrow will be .
, % of the Moon is Illuminated

Today's Extremes

State Highs State Lows

Community

WunderPhotos

Upload Photos

1,810,216 photos uploaded!

WunderBlogs® & News

Nearby

Air Quality

  Air Quality AQ Index Pollutant
Not available.

Snow Depth

Station Depth Elevation

Earthquake Activity

City Distance Mag. Time & Date
Minimum magnitude displayed is 2.5.

Coastal Water Temperatures

Place Temperature

Stations

Nearby Weather Stations

Station Location Temp. Windchill Dew Point Humidity Wind Precip. Elev Updated Type